createdAt,value
2018-03-28T00:00:34.824Z,16.87
2018-03-28T00:03:06.416Z,18.97
2018-03-28T00:05:41.626Z,16.70
2018-03-28T00:08:13.762Z,15.90
2018-03-28T00:10:45.029Z,15.83
2018-03-28T00:13:15.666Z,17.63
2018-03-28T00:15:48.153Z,17.97
2018-03-28T00:18:19.629Z,15.93
2018-03-28T00:20:53.364Z,17.73
2018-03-28T00:23:27.440Z,18.73
2018-03-28T00:26:01.898Z,17.23
2018-03-28T00:28:33.065Z,17.20
2018-03-28T00:31:04.703Z,16.93
2018-03-28T00:33:40.446Z,15.38
2018-03-28T00:36:16.867Z,18.43
2018-03-28T00:38:47.862Z,16.98
2018-03-28T00:41:19.039Z,17.70
2018-03-28T00:43:49.882Z,16.27
2018-03-28T00:46:23.027Z,17.00
2018-03-28T00:49:43.937Z,17.97
2018-03-28T00:52:15.372Z,16.13
2018-03-28T00:54:45.952Z,17.93
2018-03-28T00:57:19.163Z,17.27
2018-03-28T00:59:57.481Z,17.70
2018-03-28T01:02:31.152Z,17.10
2018-03-28T01:05:01.321Z,16.63
2018-03-28T01:07:36.660Z,17.60
2018-03-28T01:10:18.803Z,17.70
2018-03-28T01:12:51.413Z,17.13
2018-03-28T01:15:21.532Z,18.30
2018-03-28T01:17:53.844Z,18.07
2018-03-28T01:20:25.161Z,16.88
2018-03-28T01:22:55.729Z,17.30
2018-03-28T01:25:27.614Z,16.97
2018-03-28T01:27:59.063Z,17.90
2018-03-28T01:30:31.034Z,17.77
2018-03-28T01:33:05.855Z,19.00
2018-03-28T01:35:38.093Z,18.87
2018-03-28T01:38:11.768Z,17.07
2018-03-28T01:40:48.228Z,18.53
2018-03-28T01:43:19.730Z,18.00
2018-03-28T01:45:50.232Z,17.73
2018-03-28T01:48:24.067Z,17.30
2018-03-28T01:50:58.207Z,17.00
2018-03-28T01:53:30.331Z,17.37
2018-03-28T01:56:01.811Z,15.43
2018-03-28T01:58:35.738Z,16.97
2018-03-28T02:01:06.238Z,16.70
2018-03-28T02:03:38.450Z,17.40
2018-03-28T02:06:08.729Z,17.33
2018-03-28T02:08:40.215Z,17.20
2018-03-28T02:11:12.550Z,17.95
2018-03-28T02:13:47.376Z,17.13
2018-03-28T02:16:22.553Z,18.43
2018-03-28T02:18:53.102Z,18.50
2018-03-28T02:21:24.854Z,16.70
2018-03-28T02:23:56.344Z,16.83
2018-03-28T02:26:27.935Z,18.23
2018-03-28T02:28:59.658Z,17.43
2018-03-28T02:31:31.260Z,18.33
2018-03-28T02:34:03.742Z,19.93
2018-03-28T02:36:35.324Z,22.00
2018-03-28T02:39:07.077Z,23.50
2018-03-28T02:41:39.736Z,21.10
2018-03-28T02:44:40.763Z,20.03
2018-03-28T02:47:12.376Z,17.13
2018-03-28T02:49:43.185Z,18.87
2018-03-28T02:52:15.861Z,16.83
2018-03-28T02:54:49.017Z,18.10
2018-03-28T02:57:19.493Z,17.10
2018-03-28T02:59:50.366Z,16.67
2018-03-28T03:02:28.475Z,17.23
2018-03-28T03:05:00.087Z,16.33
2018-03-28T03:07:50.670Z,16.43
2018-03-28T03:10:21.329Z,17.17
2018-03-28T03:12:53.329Z,16.60
2018-03-28T03:15:25.763Z,15.35
2018-03-28T03:17:59.677Z,15.77
2018-03-28T03:20:30.171Z,16.47
2018-03-28T03:23:05.507Z,15.80
2018-03-28T03:25:38.079Z,15.77
2018-03-28T03:28:09.206Z,16.23
2018-03-28T03:30:39.766Z,16.20
2018-03-28T03:33:11.295Z,15.43
2018-03-28T03:35:43.422Z,15.20
2018-03-28T03:38:16.423Z,15.67
2018-03-28T03:40:47.868Z,15.90
2018-03-28T03:43:20.957Z,16.20
2018-03-28T03:45:53.373Z,15.67
2018-03-28T03:48:25.953Z,16.17
2018-03-28T03:51:04.500Z,16.87
2018-03-28T03:53:36.678Z,15.57
2018-03-28T03:56:11.676Z,16.52
2018-03-28T03:58:42.723Z,16.57
2018-03-28T04:01:13.999Z,17.95
2018-03-28T04:03:47.493Z,16.80
2018-03-28T04:06:19.810Z,16.30
2018-03-28T04:08:51.199Z,15.27
2018-03-28T04:11:23.052Z,17.53
2018-03-28T04:13:56.229Z,16.45
2018-03-28T04:19:28.889Z,16.53
2018-03-28T04:22:05.431Z,17.97
2018-03-28T04:24:42.548Z,18.00
2018-03-28T04:27:14.885Z,16.47
2018-03-28T04:29:48.234Z,16.10
2018-03-28T04:32:22.598Z,15.97
2018-03-28T04:34:53.592Z,16.30
2018-03-28T04:37:25.016Z,16.65
2018-03-28T04:39:57.235Z,17.27
2018-03-28T04:45:22.100Z,16.83
2018-03-28T04:47:53.265Z,17.07
2018-03-28T04:50:26.004Z,15.97
2018-03-28T04:52:57.410Z,17.10
2018-03-28T04:55:30.635Z,17.57
2018-03-28T04:58:04.297Z,15.50
2018-03-28T05:00:36.809Z,15.30
2018-03-28T05:03:08.458Z,16.98
2018-03-28T05:05:44.404Z,17.63
2018-03-28T05:08:15.631Z,15.73
2018-03-28T05:10:49.917Z,16.90
2018-03-28T05:13:22.688Z,15.13
2018-03-28T05:15:54.880Z,15.20
2018-03-28T05:18:27.401Z,16.50
2018-03-28T05:21:00.885Z,16.03
2018-03-28T05:23:34.952Z,15.90
2018-03-28T05:26:07.263Z,15.50
2018-03-28T05:28:40.558Z,15.20
2018-03-28T05:31:14.040Z,15.03
2018-03-28T05:33:47.545Z,15.43
2018-03-28T05:36:20.573Z,14.90
2018-03-28T05:38:52.336Z,15.15
2018-03-28T05:41:23.845Z,15.73
2018-03-28T05:43:57.308Z,16.33
2018-03-28T05:46:32.402Z,15.30
2018-03-28T05:49:07.163Z,15.70
2018-03-28T05:51:38.787Z,15.73
2018-03-28T05:54:11.443Z,14.33
2018-03-28T05:56:42.820Z,16.07
2018-03-28T05:59:16.656Z,15.97
2018-03-28T06:01:49.795Z,16.47
2018-03-28T06:04:21.293Z,15.57
2018-03-28T06:06:56.387Z,15.75
2018-03-28T06:09:30.290Z,15.07
2018-03-28T06:12:02.222Z,15.13
2018-03-28T06:14:35.684Z,15.67
2018-03-28T06:17:09.018Z,16.07
2018-03-28T06:19:39.766Z,15.23
2018-03-28T06:22:11.392Z,15.05
2018-03-28T06:24:44.813Z,16.63
2018-03-28T06:27:18.442Z,14.77
2018-03-28T06:29:51.166Z,15.45
2018-03-28T06:32:22.741Z,15.83
2018-03-28T06:34:53.127Z,16.30
2018-03-28T06:37:26.475Z,15.23
2018-03-28T06:40:00.934Z,15.77
2018-03-28T06:42:36.568Z,15.00
2018-03-28T06:45:07.141Z,14.47
2018-03-28T06:47:37.479Z,15.57
2018-03-28T06:50:08.238Z,14.73
2018-03-28T06:52:40.245Z,15.67
2018-03-28T06:55:11.924Z,15.07
2018-03-28T06:57:42.559Z,15.47
2018-03-28T07:00:14.261Z,14.30
2018-03-28T07:02:48.772Z,14.70
2018-03-28T07:05:22.320Z,14.87
2018-03-28T07:07:52.605Z,15.73
2018-03-28T07:10:27.816Z,15.30
2018-03-28T07:13:04.838Z,15.25
2018-03-28T07:15:40.995Z,14.47
2018-03-28T07:18:12.136Z,15.10
2018-03-28T07:20:42.541Z,13.40
2018-03-28T07:23:16.886Z,14.23
2018-03-28T07:25:47.488Z,14.93
2018-03-28T07:28:20.209Z,14.97
2018-03-28T07:30:54.597Z,15.23
2018-03-28T07:33:25.239Z,13.98
2018-03-28T07:35:55.763Z,13.83
2018-03-28T07:38:29.166Z,14.93
2018-03-28T07:41:00.896Z,14.43
2018-03-28T07:43:35.127Z,14.57
2018-03-28T07:46:06.599Z,14.27
2018-03-28T07:48:40.357Z,14.47
2018-03-28T07:51:12.708Z,15.43
2018-03-28T07:53:42.898Z,15.03
2018-03-28T07:56:15.623Z,13.63
2018-03-28T07:58:47.911Z,15.23
2018-03-28T08:01:19.474Z,15.07
2018-03-28T08:03:50.506Z,14.60
2018-03-28T08:06:23.881Z,13.90
2018-03-28T08:08:55.091Z,13.73
2018-03-28T08:11:54.570Z,14.67
2018-03-28T08:14:29.189Z,14.37
2018-03-28T08:20:12.578Z,13.67
2018-03-28T08:22:51.436Z,14.37
2018-03-28T08:25:22.628Z,15.03
2018-03-28T08:27:53.047Z,14.50
2018-03-28T08:30:23.201Z,14.57
2018-03-28T08:32:58.570Z,14.43
2018-03-28T08:35:41.389Z,13.87
2018-03-28T08:38:12.676Z,13.80
2018-03-28T08:40:43.845Z,13.20
2018-03-28T08:43:15.848Z,11.55
2018-03-28T08:45:47.039Z,12.77
2018-03-28T08:48:18.849Z,12.87
2018-03-28T08:50:50.608Z,14.05
2018-03-28T08:53:20.839Z,14.17
2018-03-28T08:55:51.690Z,13.20
2018-03-28T08:58:22.353Z,12.07
2018-03-28T09:00:52.655Z,13.37
2018-03-28T09:03:24.501Z,13.00
2018-03-28T09:05:57.020Z,12.73
2018-03-28T09:08:31.386Z,13.83
2018-03-28T09:11:02.716Z,12.82
2018-03-28T09:13:38.314Z,12.40
2018-03-28T09:16:11.106Z,12.30
2018-03-28T09:18:44.944Z,13.10
2018-03-28T09:21:19.271Z,14.00
2018-03-28T09:23:53.977Z,13.73
2018-03-28T09:26:25.689Z,12.97
2018-03-28T09:28:57.265Z,12.97
2018-03-28T09:31:29.484Z,15.17
2018-03-28T09:33:58.923Z,15.20
2018-03-28T09:36:28.291Z,14.63
2018-03-28T09:39:00.179Z,14.02
2018-03-28T09:41:33.799Z,13.93
2018-03-28T09:44:04.836Z,13.13
2018-03-28T09:46:34.459Z,14.50
2018-03-28T09:49:04.694Z,14.93
2018-03-28T09:51:34.133Z,14.17
2018-03-28T09:54:03.470Z,13.93
2018-03-28T09:56:32.802Z,15.53
2018-03-28T09:59:02.219Z,15.93
2018-03-28T10:01:31.750Z,16.30
2018-03-28T10:04:06.612Z,15.50
2018-03-28T10:06:36.013Z,17.00
2018-03-28T10:09:05.329Z,17.50
2018-03-28T10:11:36.911Z,16.50
2018-03-28T10:14:06.426Z,16.70
2018-03-28T10:16:35.851Z,16.23
2018-03-28T10:19:05.348Z,16.00
2018-03-28T10:21:34.877Z,17.10
2018-03-28T10:24:04.176Z,18.23
2018-03-28T10:26:33.503Z,17.43
2018-03-28T10:29:02.990Z,17.63
2018-03-28T10:31:32.391Z,18.20
2018-03-28T10:34:01.939Z,17.92
2018-03-28T10:36:31.995Z,18.15
2018-03-28T10:39:01.460Z,17.27
2018-03-28T10:41:31.620Z,16.87
2018-03-28T10:44:01.071Z,18.70
2018-03-28T10:46:30.936Z,17.53
2018-03-28T10:49:00.710Z,16.80
2018-03-28T10:51:30.033Z,15.75
2018-03-28T10:53:59.470Z,15.97
2018-03-28T10:56:29.484Z,17.30
2018-03-28T10:59:00.092Z,16.92
2018-03-28T11:01:29.418Z,17.07
2018-03-28T11:04:00.113Z,17.80
2018-03-28T11:06:29.469Z,17.03
2018-03-28T11:08:59.526Z,17.42
2018-03-28T11:11:29.563Z,17.08
2018-03-28T11:13:59.467Z,16.77
2018-03-28T11:16:30.416Z,17.35
2018-03-28T11:19:00.130Z,18.00
2018-03-28T11:21:30.336Z,16.17
2018-03-28T11:23:59.716Z,17.27
2018-03-28T11:26:29.679Z,17.07
2018-03-28T11:28:59.956Z,16.90
2018-03-28T11:31:30.949Z,16.70
2018-03-28T11:34:00.320Z,17.43
2018-03-28T11:36:30.903Z,16.24
2018-03-28T11:39:02.358Z,16.20
2018-03-28T11:41:32.506Z,17.27
2018-03-28T11:44:09.623Z,16.13
2018-03-28T11:46:40.157Z,16.87
2018-03-28T11:49:10.701Z,16.77
2018-03-28T11:51:42.901Z,16.67
2018-03-28T11:54:13.883Z,17.25
2018-03-28T11:56:44.077Z,17.60
2018-03-28T11:59:14.924Z,16.50
2018-03-28T12:01:44.817Z,16.20
2018-03-28T12:04:17.259Z,17.30
2018-03-28T12:06:48.155Z,16.47
2018-03-28T12:09:20.006Z,16.90
2018-03-28T12:11:51.832Z,16.03
2018-03-28T12:14:26.817Z,14.95
2018-03-28T12:16:57.616Z,15.83
2018-03-28T12:19:28.637Z,15.43
2018-03-28T12:21:59.679Z,15.47
2018-03-28T12:24:30.905Z,15.93
2018-03-28T12:27:07.374Z,15.60
2018-03-28T12:29:39.124Z,16.13
2018-03-28T12:32:12.373Z,16.07
2018-03-28T12:34:45.900Z,15.83
2018-03-28T12:37:18.902Z,13.50
2018-03-28T12:39:52.663Z,14.23
2018-03-28T12:42:23.367Z,14.33
2018-03-28T12:44:53.909Z,14.17
2018-03-28T12:47:24.803Z,13.97
2018-03-28T12:49:56.855Z,14.43
2018-03-28T12:52:27.358Z,14.20
2018-03-28T12:54:58.524Z,13.27
2018-03-28T12:57:28.720Z,13.27
2018-03-28T12:59:59.881Z,13.03
2018-03-28T13:02:30.397Z,12.73
2018-03-28T13:05:01.297Z,14.17
2018-03-28T13:07:33.780Z,14.13
2018-03-28T13:10:07.420Z,12.90
2018-03-28T13:12:38.618Z,12.37
2018-03-28T13:15:10.418Z,13.60
2018-03-28T13:17:39.841Z,12.80
2018-03-28T13:20:09.937Z,12.77
2018-03-28T13:22:40.020Z,12.65
2018-03-28T13:25:09.325Z,12.63
2018-03-28T13:27:38.879Z,13.05
2018-03-28T13:30:34.132Z,14.40
2018-03-28T13:33:03.689Z,13.63
2018-03-28T13:35:33.185Z,13.73
2018-03-28T13:38:05.582Z,14.00
2018-03-28T13:40:42.179Z,15.30
2018-03-28T13:43:16.224Z,15.60
2018-03-28T13:45:47.676Z,15.10
2018-03-28T13:48:19.715Z,16.13
2018-03-28T13:50:50.630Z,15.07
2018-03-28T13:53:23.759Z,15.93
2018-03-28T13:55:56.539Z,14.77
2018-03-28T13:58:27.680Z,14.73
2018-03-28T14:00:57.078Z,14.17
2018-03-28T14:03:26.385Z,14.53
2018-03-28T14:05:55.756Z,15.03
2018-03-28T14:08:25.093Z,14.75
2018-03-28T14:10:54.451Z,15.98
2018-03-28T14:13:23.874Z,15.07
2018-03-28T14:15:53.974Z,15.90
2018-03-28T14:18:23.515Z,14.40
2018-03-28T14:20:54.620Z,14.40
2018-03-28T14:23:24.704Z,14.68
2018-03-28T14:25:54.190Z,16.62
2018-03-28T14:28:23.550Z,15.60
2018-03-28T14:30:52.968Z,14.67
2018-03-28T14:33:22.337Z,15.27
2018-03-28T14:35:51.754Z,15.93
2018-03-28T14:38:21.175Z,14.90
2018-03-28T14:40:50.523Z,14.95
2018-03-28T14:43:20.194Z,15.77
2018-03-28T14:45:50.615Z,14.70
2018-03-28T14:48:19.946Z,15.27
2018-03-28T14:50:50.099Z,14.37
2018-03-28T14:53:19.522Z,14.67
2018-03-28T14:55:48.923Z,14.77
2018-03-28T14:58:19.167Z,15.27
2018-03-28T15:00:49.432Z,14.67
2018-03-28T15:03:18.799Z,15.13
2018-03-28T15:05:48.209Z,14.53
2018-03-28T15:08:17.547Z,15.90
2018-03-28T15:10:46.837Z,16.15
2018-03-28T15:13:16.463Z,15.38
2018-03-28T15:15:46.566Z,14.82
2018-03-28T15:18:16.637Z,15.57
2018-03-28T15:20:46.009Z,15.15
2018-03-28T15:23:15.370Z,15.35
2018-03-28T15:25:44.797Z,15.27
2018-03-28T15:28:14.146Z,15.93
2018-03-28T15:30:43.483Z,17.73
2018-03-28T15:33:14.315Z,16.58
2018-03-28T15:35:43.705Z,15.27
2018-03-28T15:38:13.866Z,15.88
2018-03-28T15:40:45.006Z,15.63
2018-03-28T15:43:16.307Z,16.37
2018-03-28T15:45:46.616Z,16.63
2018-03-28T15:48:18.040Z,16.37
2018-03-28T15:50:51.368Z,15.75
2018-03-28T15:53:23.711Z,15.90
2018-03-28T15:55:55.199Z,16.00
2018-03-28T15:58:28.889Z,16.97
2018-03-28T16:01:04.727Z,17.03
2018-03-28T16:03:39.297Z,15.63
2018-03-28T16:06:11.603Z,17.08
2018-03-28T16:08:44.458Z,18.13
2018-03-28T16:11:17.330Z,18.87
2018-03-28T16:13:59.846Z,18.93
2018-03-28T16:16:31.041Z,18.65
2018-03-28T16:19:03.002Z,18.87
2018-03-28T16:21:32.813Z,19.43
2018-03-28T16:24:03.780Z,17.03
2018-03-28T16:26:34.870Z,17.53
2018-03-28T16:29:04.243Z,16.53
2018-03-28T16:31:33.594Z,18.67
2018-03-28T16:34:03.205Z,17.80
2018-03-28T16:36:34.401Z,18.07
2018-03-28T16:39:06.093Z,18.27
2018-03-28T16:41:43.059Z,18.00
2018-03-28T16:44:16.553Z,18.13
2018-03-28T16:46:46.362Z,17.40
2018-03-28T16:49:17.043Z,18.73
2018-03-28T16:51:50.078Z,17.97
2018-03-28T16:54:21.978Z,17.80
2018-03-28T16:56:53.387Z,18.27
2018-03-28T16:59:23.424Z,17.15
2018-03-28T17:01:54.872Z,18.00
2018-03-28T17:04:24.224Z,17.73
2018-03-28T17:06:54.140Z,17.45
2018-03-28T17:09:23.515Z,18.58
2018-03-28T17:11:55.220Z,18.42
2018-03-28T17:14:25.583Z,18.27
2018-03-28T17:16:55.879Z,19.30
2018-03-28T17:19:28.993Z,20.50
2018-03-28T17:22:00.000Z,21.20
2018-03-28T17:24:34.107Z,21.75
2018-03-28T17:27:06.965Z,18.27
2018-03-28T17:29:38.999Z,19.03
2018-03-28T17:35:09.610Z,18.35
2018-03-28T17:37:41.409Z,17.63
2018-03-28T17:40:15.265Z,17.67
2018-03-28T17:42:44.863Z,17.57
2018-03-28T17:45:15.417Z,17.73
2018-03-28T17:47:45.464Z,18.47
2018-03-28T17:50:21.089Z,18.00
2018-03-28T17:52:52.249Z,18.07
2018-03-28T17:55:29.581Z,18.43
2018-03-28T17:58:01.055Z,17.50
2018-03-28T18:00:34.282Z,17.10
2018-03-28T18:03:06.653Z,17.77
2018-03-28T18:05:37.480Z,17.12
2018-03-28T18:08:07.478Z,17.17
2018-03-28T18:10:37.832Z,17.70
2018-03-28T18:13:07.623Z,18.15
2018-03-28T18:15:37.059Z,18.63
2018-03-28T18:18:06.443Z,16.27
2018-03-28T18:20:35.833Z,17.03
2018-03-28T18:23:05.266Z,17.57
2018-03-28T18:25:34.707Z,18.60
2018-03-28T18:28:04.632Z,17.00
2018-03-28T18:30:34.608Z,17.83
2018-03-28T18:33:03.931Z,18.27
2018-03-28T18:35:33.324Z,18.30
2018-03-28T18:38:03.758Z,18.55
2018-03-28T18:40:39.056Z,17.63
2018-03-28T18:43:13.675Z,19.03
2018-03-28T18:45:52.195Z,19.98
2018-03-28T18:48:25.251Z,17.97
2018-03-28T18:50:56.801Z,19.70
2018-03-28T18:53:27.727Z,20.13
2018-03-28T18:56:04.432Z,20.27
2018-03-28T18:58:36.436Z,20.15
2018-03-28T19:01:05.991Z,19.07
2018-03-28T19:03:36.280Z,20.57
2018-03-28T19:06:05.644Z,17.77
2018-03-28T19:08:35.205Z,17.87
2018-03-28T19:11:05.696Z,19.35
2018-03-28T19:13:36.316Z,21.13
2018-03-28T19:16:06.673Z,19.83
2018-03-28T19:18:38.763Z,20.60
2018-03-28T19:21:16.227Z,21.43
2018-03-28T19:23:45.794Z,19.60
2018-03-28T19:26:16.570Z,19.50
2018-03-28T19:28:47.119Z,20.60
2018-03-28T19:31:17.162Z,20.30
2018-03-28T19:33:52.003Z,20.23
2018-03-28T19:39:48.618Z,20.37
2018-03-28T19:42:17.946Z,20.20
2018-03-28T19:44:48.113Z,20.40
2018-03-28T19:47:17.482Z,20.00
2018-03-28T19:49:47.800Z,19.77
2018-03-28T19:52:19.616Z,20.03
2018-03-28T19:54:52.742Z,19.67
2018-03-28T19:57:22.630Z,20.40
2018-03-28T19:59:53.388Z,19.17
2018-03-28T20:02:23.771Z,19.07
2018-03-28T20:05:20.592Z,19.47
2018-03-28T20:07:55.142Z,20.67
2018-03-28T20:10:27.538Z,19.57
2018-03-28T20:12:59.648Z,19.27
2018-03-28T20:15:30.778Z,22.00
2018-03-28T20:18:05.471Z,21.37
2018-03-28T20:20:39.053Z,21.63
2018-03-28T20:23:09.376Z,22.73
2018-03-28T20:25:43.750Z,20.57
2018-03-28T20:28:18.670Z,20.75
2018-03-28T20:30:48.358Z,21.23
2018-03-28T20:33:19.239Z,19.33
2018-03-28T20:35:48.792Z,21.17
2018-03-28T20:38:19.259Z,21.15
2018-03-28T20:40:49.207Z,22.60
2018-03-28T20:43:20.597Z,21.50
2018-03-28T20:45:50.535Z,22.73
2018-03-28T20:54:32.743Z,22.67
2018-03-28T20:57:08.182Z,21.50
2018-03-28T20:59:40.316Z,21.13
2018-03-28T21:02:10.796Z,20.43
2018-03-28T21:04:40.823Z,19.83
2018-03-28T21:07:10.993Z,20.97
2018-03-28T21:09:41.107Z,21.40
2018-03-28T21:12:11.482Z,22.03
2018-03-28T21:14:41.949Z,20.50
2018-03-28T21:17:12.161Z,21.23
2018-03-28T21:19:41.665Z,20.50
2018-03-28T21:22:11.655Z,21.47
2018-03-28T21:24:45.308Z,20.80
2018-03-28T21:27:16.234Z,20.27
2018-03-28T21:29:48.295Z,19.93
2018-03-28T21:32:18.629Z,20.60
2018-03-28T21:34:50.795Z,21.87
2018-03-28T21:37:21.931Z,20.10
2018-03-28T21:39:53.238Z,22.47
2018-03-28T21:42:25.513Z,24.10
2018-03-28T21:44:57.758Z,22.33
2018-03-28T21:47:27.684Z,21.07
2018-03-28T21:49:58.843Z,22.93
2018-03-28T21:52:32.910Z,23.08
2018-03-28T21:55:03.163Z,22.50
2018-03-28T21:57:32.484Z,25.00
2018-03-28T22:00:01.869Z,25.30
2018-03-28T22:02:32.879Z,22.67
2018-03-28T22:05:02.322Z,22.67
2018-03-28T22:07:33.894Z,21.10
2018-03-28T22:10:04.404Z,22.33
2018-03-28T22:12:35.708Z,23.38
2018-03-28T22:15:06.707Z,20.60
2018-03-28T22:17:38.932Z,20.80
2018-03-28T22:20:09.001Z,21.83
2018-03-28T22:22:38.860Z,21.10
2018-03-28T22:25:09.948Z,20.20
2018-03-28T22:27:46.271Z,21.47
2018-03-28T22:30:18.515Z,21.10
2018-03-28T22:32:48.487Z,20.70
2018-03-28T22:35:21.248Z,20.13
2018-03-28T22:37:52.279Z,20.88
2018-03-28T22:40:22.763Z,20.43
2018-03-28T22:42:53.092Z,20.17
2018-03-28T22:45:23.815Z,21.77
2018-03-28T22:47:54.026Z,22.37
2018-03-28T22:50:26.758Z,20.17
2018-03-28T22:56:17.051Z,21.13
2018-03-28T22:58:46.549Z,21.50
2018-03-28T23:01:16.668Z,20.17
2018-03-28T23:03:46.461Z,21.13
2018-03-28T23:06:16.583Z,21.00
2018-03-28T23:08:45.943Z,21.80
2018-03-28T23:11:18.442Z,20.90
2018-03-28T23:13:51.683Z,19.93
2018-03-28T23:16:26.408Z,20.67
2018-03-28T23:18:58.894Z,19.97
2018-03-28T23:21:31.737Z,19.47
2018-03-28T23:24:04.696Z,17.90
2018-03-28T23:26:35.200Z,17.80
2018-03-28T23:29:06.278Z,19.17
2018-03-28T23:31:37.355Z,21.17
2018-03-28T23:34:06.750Z,20.70
2018-03-28T23:36:36.499Z,19.70
2018-03-28T23:39:06.081Z,19.33
2018-03-28T23:41:35.551Z,18.77
2018-03-28T23:44:04.831Z,18.37
2018-03-28T23:46:34.316Z,18.77
2018-03-28T23:49:04.460Z,18.83
2018-03-28T23:51:34.083Z,18.77
2018-03-28T23:54:03.458Z,19.07
2018-03-28T23:56:32.781Z,20.10
2018-03-28T23:59:02.424Z,19.33
